sensor_id;sensor_type;location;lat;lon;timestamp;P1;durP1;ratioP1;P2;durP2;ratioP2
75785;SDS011;64402;44.708;37.644;2024-01-27T00:02:04;11.35;;;4.10;;
75785;SDS011;64402;44.708;37.644;2024-01-27T00:04:30;11.45;;;4.40;;
75785;SDS011;64402;44.708;37.644;2024-01-27T00:06:56;11.77;;;3.90;;
75785;SDS011;64402;44.708;37.644;2024-01-27T00:09:22;12.05;;;4.90;;
75785;SDS011;64402;44.708;37.644;2024-01-27T00:11:49;11.35;;;4.90;;
75785;SDS011;64402;44.708;37.644;2024-01-27T00:14:15;12.05;;;4.57;;
75785;SDS011;64402;44.708;37.644;2024-01-27T00:16:41;11.90;;;5.30;;
75785;SDS011;64402;44.708;37.644;2024-01-27T00:19:07;15.32;;;5.07;;
75785;SDS011;64402;44.708;37.644;2024-01-27T00:21:33;14.55;;;5.03;;
75785;SDS011;64402;44.708;37.644;2024-01-27T00:23:59;12.68;;;5.55;;
75785;SDS011;64402;44.708;37.644;2024-01-27T00:26:26;13.10;;;5.38;;
75785;SDS011;64402;44.708;37.644;2024-01-27T00:28:53;10.00;;;4.68;;
75785;SDS011;64402;44.708;37.644;2024-01-27T00:31:19;14.43;;;5.93;;
75785;SDS011;64402;44.708;37.644;2024-01-27T00:33:45;13.18;;;5.68;;
75785;SDS011;64402;44.708;37.644;2024-01-27T00:36:11;11.90;;;5.00;;
75785;SDS011;64402;44.708;37.644;2024-01-27T00:38:38;12.68;;;6.00;;
75785;SDS011;64402;44.708;37.644;2024-01-27T00:41:04;9.52;;;4.47;;
75785;SDS011;64402;44.708;37.644;2024-01-27T00:43:31;12.25;;;4.85;;
75785;SDS011;64402;44.708;37.644;2024-01-27T00:45:57;9.60;;;4.28;;
75785;SDS011;64402;44.708;37.644;2024-01-27T00:48:23;10.18;;;4.47;;
75785;SDS011;64402;44.708;37.644;2024-01-27T00:50:49;7.88;;;3.80;;
75785;SDS011;64402;44.708;37.644;2024-01-27T00:53:15;10.40;;;4.55;;
75785;SDS011;64402;44.708;37.644;2024-01-27T00:55:41;9.82;;;3.95;;
75785;SDS011;64402;44.708;37.644;2024-01-27T00:58:08;7.53;;;3.72;;
75785;SDS011;64402;44.708;37.644;2024-01-27T01:00:39;8.38;;;4.07;;
75785;SDS011;64402;44.708;37.644;2024-01-27T01:03:05;8.07;;;3.83;;
75785;SDS011;64402;44.708;37.644;2024-01-27T01:05:31;9.00;;;3.35;;
75785;SDS011;64402;44.708;37.644;2024-01-27T01:07:57;9.55;;;4.03;;
75785;SDS011;64402;44.708;37.644;2024-01-27T01:10:24;9.32;;;4.07;;
75785;SDS011;64402;44.708;37.644;2024-01-27T01:12:50;8.45;;;3.88;;
75785;SDS011;64402;44.708;37.644;2024-01-27T01:15:16;16.63;;;7.90;;
75785;SDS011;64402;44.708;37.644;2024-01-27T01:17:42;10.93;;;5.38;;
75785;SDS011;64402;44.708;37.644;2024-01-27T01:20:08;8.57;;;3.70;;
75785;SDS011;64402;44.708;37.644;2024-01-27T01:22:35;7.85;;;3.40;;
75785;SDS011;64402;44.708;37.644;2024-01-27T01:25:01;8.82;;;4.68;;
75785;SDS011;64402;44.708;37.644;2024-01-27T01:27:27;9.85;;;4.68;;
75785;SDS011;64402;44.708;37.644;2024-01-27T01:29:53;10.77;;;4.25;;
75785;SDS011;64402;44.708;37.644;2024-01-27T01:32:19;8.02;;;3.67;;
75785;SDS011;64402;44.708;37.644;2024-01-27T01:34:45;9.40;;;4.03;;
75785;SDS011;64402;44.708;37.644;2024-01-27T01:37:12;17.15;;;8.48;;
75785;SDS011;64402;44.708;37.644;2024-01-27T01:39:39;24.25;;;9.77;;
75785;SDS011;64402;44.708;37.644;2024-01-27T01:42:06;9.20;;;4.38;;
75785;SDS011;64402;44.708;37.644;2024-01-27T01:44:37;9.95;;;3.50;;
75785;SDS011;64402;44.708;37.644;2024-01-27T01:47:03;8.30;;;3.80;;
75785;SDS011;64402;44.708;37.644;2024-01-27T01:49:30;8.05;;;4.00;;
75785;SDS011;64402;44.708;37.644;2024-01-27T01:51:56;6.75;;;3.05;;
75785;SDS011;64402;44.708;37.644;2024-01-27T01:54:23;7.30;;;3.83;;
75785;SDS011;64402;44.708;37.644;2024-01-27T01:56:54;6.97;;;3.45;;
75785;SDS011;64402;44.708;37.644;2024-01-27T01:59:22;9.32;;;3.85;;
75785;SDS011;64402;44.708;37.644;2024-01-27T02:01:48;7.20;;;3.47;;
75785;SDS011;64402;44.708;37.644;2024-01-27T02:04:14;8.05;;;4.10;;
75785;SDS011;64402;44.708;37.644;2024-01-27T02:06:40;7.05;;;3.63;;
75785;SDS011;64402;44.708;37.644;2024-01-27T02:09:07;8.38;;;3.83;;
75785;SDS011;64402;44.708;37.644;2024-01-27T02:11:35;8.57;;;3.63;;
75785;SDS011;64402;44.708;37.644;2024-01-27T02:14:01;9.88;;;3.97;;
75785;SDS011;64402;44.708;37.644;2024-01-27T02:16:27;8.05;;;3.78;;
75785;SDS011;64402;44.708;37.644;2024-01-27T02:18:53;9.77;;;5.53;;
75785;SDS011;64402;44.708;37.644;2024-01-27T02:21:19;20.35;;;9.45;;
75785;SDS011;64402;44.708;37.644;2024-01-27T02:23:46;7.43;;;3.88;;
75785;SDS011;64402;44.708;37.644;2024-01-27T02:26:12;9.05;;;4.18;;
75785;SDS011;64402;44.708;37.644;2024-01-27T02:28:38;8.13;;;4.10;;
75785;SDS011;64402;44.708;37.644;2024-01-27T02:31:04;10.38;;;4.65;;
75785;SDS011;64402;44.708;37.644;2024-01-27T02:33:30;8.07;;;3.83;;
75785;SDS011;64402;44.708;37.644;2024-01-27T02:35:56;9.68;;;4.05;;
75785;SDS011;64402;44.708;37.644;2024-01-27T02:38:23;7.68;;;4.10;;
75785;SDS011;64402;44.708;37.644;2024-01-27T02:40:49;7.85;;;3.95;;
75785;SDS011;64402;44.708;37.644;2024-01-27T02:43:15;7.32;;;3.53;;
75785;SDS011;64402;44.708;37.644;2024-01-27T02:45:42;7.65;;;3.45;;
75785;SDS011;64402;44.708;37.644;2024-01-27T02:48:09;7.32;;;3.70;;
75785;SDS011;64402;44.708;37.644;2024-01-27T02:50:35;7.35;;;3.55;;
75785;SDS011;64402;44.708;37.644;2024-01-27T02:53:01;7.55;;;3.80;;
75785;SDS011;64402;44.708;37.644;2024-01-27T02:55:27;6.50;;;3.22;;
75785;SDS011;64402;44.708;37.644;2024-01-27T02:57:53;7.63;;;4.00;;
75785;SDS011;64402;44.708;37.644;2024-01-27T03:00:19;7.00;;;3.20;;
75785;SDS011;64402;44.708;37.644;2024-01-27T03:02:45;6.70;;;3.03;;
75785;SDS011;64402;44.708;37.644;2024-01-27T03:05:12;9.18;;;3.47;;
75785;SDS011;64402;44.708;37.644;2024-01-27T03:07:39;6.68;;;3.38;;
75785;SDS011;64402;44.708;37.644;2024-01-27T03:10:06;7.13;;;3.47;;
75785;SDS011;64402;44.708;37.644;2024-01-27T03:12:32;6.32;;;3.10;;
75785;SDS011;64402;44.708;37.644;2024-01-27T03:14:58;8.18;;;4.55;;
75785;SDS011;64402;44.708;37.644;2024-01-27T03:17:24;9.73;;;4.90;;
75785;SDS011;64402;44.708;37.644;2024-01-27T03:19:51;9.63;;;4.35;;
75785;SDS011;64402;44.708;37.644;2024-01-27T03:22:17;7.35;;;3.72;;
75785;SDS011;64402;44.708;37.644;2024-01-27T03:24:43;8.57;;;3.92;;
75785;SDS011;64402;44.708;37.644;2024-01-27T03:27:09;10.90;;;4.20;;
75785;SDS011;64402;44.708;37.644;2024-01-27T03:29:36;8.55;;;4.03;;
75785;SDS011;64402;44.708;37.644;2024-01-27T03:32:02;8.00;;;4.15;;
75785;SDS011;64402;44.708;37.644;2024-01-27T03:34:28;7.80;;;3.67;;
75785;SDS011;64402;44.708;37.644;2024-01-27T03:36:54;9.63;;;5.72;;
75785;SDS011;64402;44.708;37.644;2024-01-27T03:39:20;12.32;;;7.18;;
75785;SDS011;64402;44.708;37.644;2024-01-27T03:41:46;15.45;;;8.32;;
75785;SDS011;64402;44.708;37.644;2024-01-27T03:44:13;8.32;;;4.43;;
75785;SDS011;64402;44.708;37.644;2024-01-27T03:46:39;9.00;;;4.38;;
75785;SDS011;64402;44.708;37.644;2024-01-27T03:49:05;8.13;;;4.30;;
75785;SDS011;64402;44.708;37.644;2024-01-27T03:51:31;9.25;;;4.65;;
75785;SDS011;64402;44.708;37.644;2024-01-27T03:53:58;9.60;;;4.80;;
75785;SDS011;64402;44.708;37.644;2024-01-27T03:56:24;8.30;;;4.63;;
75785;SDS011;64402;44.708;37.644;2024-01-27T03:58:50;8.82;;;5.07;;
75785;SDS011;64402;44.708;37.644;2024-01-27T04:01:16;8.85;;;4.65;;
75785;SDS011;64402;44.708;37.644;2024-01-27T04:03:42;8.60;;;4.93;;
75785;SDS011;64402;44.708;37.644;2024-01-27T04:06:09;8.98;;;5.20;;
75785;SDS011;64402;44.708;37.644;2024-01-27T04:08:35;9.98;;;4.88;;
75785;SDS011;64402;44.708;37.644;2024-01-27T04:11:01;9.50;;;5.40;;
75785;SDS011;64402;44.708;37.644;2024-01-27T04:13:27;9.57;;;5.30;;
75785;SDS011;64402;44.708;37.644;2024-01-27T04:15:53;10.43;;;5.00;;
75785;SDS011;64402;44.708;37.644;2024-01-27T04:18:19;9.77;;;5.50;;
75785;SDS011;64402;44.708;37.644;2024-01-27T04:20:45;9.68;;;5.22;;
75785;SDS011;64402;44.708;37.644;2024-01-27T04:23:11;11.32;;;5.93;;
75785;SDS011;64402;44.708;37.644;2024-01-27T04:25:38;10.90;;;5.85;;
75785;SDS011;64402;44.708;37.644;2024-01-27T04:28:04;10.38;;;6.28;;
75785;SDS011;64402;44.708;37.644;2024-01-27T04:30:31;10.55;;;5.93;;
75785;SDS011;64402;44.708;37.644;2024-01-27T04:32:57;10.48;;;5.70;;
75785;SDS011;64402;44.708;37.644;2024-01-27T04:35:23;10.35;;;6.00;;
75785;SDS011;64402;44.708;37.644;2024-01-27T04:37:49;12.40;;;6.18;;
75785;SDS011;64402;44.708;37.644;2024-01-27T04:40:16;11.43;;;6.00;;
75785;SDS011;64402;44.708;37.644;2024-01-27T04:42:42;10.48;;;5.90;;
75785;SDS011;64402;44.708;37.644;2024-01-27T04:45:09;15.20;;;7.60;;
75785;SDS011;64402;44.708;37.644;2024-01-27T04:47:35;9.93;;;4.97;;
75785;SDS011;64402;44.708;37.644;2024-01-27T04:50:02;9.68;;;5.28;;
75785;SDS011;64402;44.708;37.644;2024-01-27T04:52:28;11.68;;;5.60;;
75785;SDS011;64402;44.708;37.644;2024-01-27T04:54:55;11.48;;;6.10;;
75785;SDS011;64402;44.708;37.644;2024-01-27T04:57:21;12.43;;;6.13;;
75785;SDS011;64402;44.708;37.644;2024-01-27T04:59:47;11.40;;;6.00;;
75785;SDS011;64402;44.708;37.644;2024-01-27T05:02:13;11.73;;;6.00;;
75785;SDS011;64402;44.708;37.644;2024-01-27T05:04:39;10.32;;;6.40;;
75785;SDS011;64402;44.708;37.644;2024-01-27T05:07:06;9.48;;;5.25;;
75785;SDS011;64402;44.708;37.644;2024-01-27T05:09:33;11.07;;;6.22;;
75785;SDS011;64402;44.708;37.644;2024-01-27T05:12:00;18.00;;;9.35;;
75785;SDS011;64402;44.708;37.644;2024-01-27T05:14:26;9.77;;;4.60;;
75785;SDS011;64402;44.708;37.644;2024-01-27T05:16:52;11.40;;;4.80;;
75785;SDS011;64402;44.708;37.644;2024-01-27T05:19:18;9.43;;;4.68;;
75785;SDS011;64402;44.708;37.644;2024-01-27T05:21:44;10.07;;;4.97;;
75785;SDS011;64402;44.708;37.644;2024-01-27T05:24:10;10.98;;;5.75;;
75785;SDS011;64402;44.708;37.644;2024-01-27T05:26:37;11.32;;;6.13;;
75785;SDS011;64402;44.708;37.644;2024-01-27T05:29:03;12.98;;;6.20;;
75785;SDS011;64402;44.708;37.644;2024-01-27T05:31:29;10.13;;;5.70;;
75785;SDS011;64402;44.708;37.644;2024-01-27T05:33:55;12.80;;;6.32;;
75785;SDS011;64402;44.708;37.644;2024-01-27T05:36:22;14.38;;;6.25;;
75785;SDS011;64402;44.708;37.644;2024-01-27T05:38:48;14.80;;;7.25;;
75785;SDS011;64402;44.708;37.644;2024-01-27T05:41:14;11.90;;;6.82;;
75785;SDS011;64402;44.708;37.644;2024-01-27T05:43:41;13.07;;;7.15;;
75785;SDS011;64402;44.708;37.644;2024-01-27T05:46:08;13.02;;;6.97;;
75785;SDS011;64402;44.708;37.644;2024-01-27T05:48:35;10.95;;;6.28;;
75785;SDS011;64402;44.708;37.644;2024-01-27T05:51:02;12.45;;;7.05;;
75785;SDS011;64402;44.708;37.644;2024-01-27T05:53:28;13.90;;;6.63;;
75785;SDS011;64402;44.708;37.644;2024-01-27T05:55:54;12.40;;;6.03;;
75785;SDS011;64402;44.708;37.644;2024-01-27T05:58:21;12.32;;;6.32;;
75785;SDS011;64402;44.708;37.644;2024-01-27T06:00:47;12.98;;;7.30;;
75785;SDS011;64402;44.708;37.644;2024-01-27T06:03:14;20.65;;;9.40;;
75785;SDS011;64402;44.708;37.644;2024-01-27T06:05:41;17.20;;;9.82;;
75785;SDS011;64402;44.708;37.644;2024-01-27T06:08:08;13.95;;;6.63;;
75785;SDS011;64402;44.708;37.644;2024-01-27T06:10:34;21.92;;;10.65;;
75785;SDS011;64402;44.708;37.644;2024-01-27T06:13:05;13.52;;;6.53;;
75785;SDS011;64402;44.708;37.644;2024-01-27T06:15:31;14.73;;;7.00;;
75785;SDS011;64402;44.708;37.644;2024-01-27T06:18:00;13.32;;;6.82;;
75785;SDS011;64402;44.708;37.644;2024-01-27T06:20:27;14.75;;;6.32;;
75785;SDS011;64402;44.708;37.644;2024-01-27T06:22:53;15.15;;;7.93;;
75785;SDS011;64402;44.708;37.644;2024-01-27T06:25:22;14.65;;;6.82;;
75785;SDS011;64402;44.708;37.644;2024-01-27T06:27:48;15.82;;;7.00;;
75785;SDS011;64402;44.708;37.644;2024-01-27T06:30:15;15.05;;;7.70;;
75785;SDS011;64402;44.708;37.644;2024-01-27T06:32:41;13.02;;;8.10;;
75785;SDS011;64402;44.708;37.644;2024-01-27T06:35:08;18.08;;;8.52;;
75785;SDS011;64402;44.708;37.644;2024-01-27T06:37:34;10.95;;;6.28;;
75785;SDS011;64402;44.708;37.644;2024-01-27T06:40:01;10.90;;;5.85;;
75785;SDS011;64402;44.708;37.644;2024-01-27T06:42:27;13.27;;;6.65;;
75785;SDS011;64402;44.708;37.644;2024-01-27T06:44:54;15.02;;;6.47;;
75785;SDS011;64402;44.708;37.644;2024-01-27T06:47:20;14.90;;;6.75;;
75785;SDS011;64402;44.708;37.644;2024-01-27T06:49:46;19.25;;;8.23;;
75785;SDS011;64402;44.708;37.644;2024-01-27T06:52:12;28.88;;;15.68;;
75785;SDS011;64402;44.708;37.644;2024-01-27T06:54:38;22.73;;;13.55;;
75785;SDS011;64402;44.708;37.644;2024-01-27T06:57:19;10.93;;;6.68;;
75785;SDS011;64402;44.708;37.644;2024-01-27T06:59:47;10.20;;;5.60;;
75785;SDS011;64402;44.708;37.644;2024-01-27T07:02:27;12.40;;;6.43;;
75785;SDS011;64402;44.708;37.644;2024-01-27T07:04:56;12.60;;;7.45;;
75785;SDS011;64402;44.708;37.644;2024-01-27T07:07:26;22.85;;;9.75;;
75785;SDS011;64402;44.708;37.644;2024-01-27T07:09:56;11.13;;;5.55;;
75785;SDS011;64402;44.708;37.644;2024-01-27T07:12:23;14.05;;;7.07;;
75785;SDS011;64402;44.708;37.644;2024-01-27T07:14:50;11.23;;;5.70;;
75785;SDS011;64402;44.708;37.644;2024-01-27T07:17:20;9.77;;;5.10;;
75785;SDS011;64402;44.708;37.644;2024-01-27T07:19:47;7.97;;;3.58;;
75785;SDS011;64402;44.708;37.644;2024-01-27T07:22:13;7.20;;;3.30;;
75785;SDS011;64402;44.708;37.644;2024-01-27T07:24:39;6.40;;;3.22;;
75785;SDS011;64402;44.708;37.644;2024-01-27T07:27:06;8.15;;;3.40;;
75785;SDS011;64402;44.708;37.644;2024-01-27T07:29:32;8.55;;;4.25;;
75785;SDS011;64402;44.708;37.644;2024-01-27T07:31:59;7.93;;;3.88;;
75785;SDS011;64402;44.708;37.644;2024-01-27T07:34:25;10.55;;;4.22;;
75785;SDS011;64402;44.708;37.644;2024-01-27T07:36:51;8.30;;;4.35;;
75785;SDS011;64402;44.708;37.644;2024-01-27T07:39:17;8.50;;;4.47;;
75785;SDS011;64402;44.708;37.644;2024-01-27T07:41:43;12.57;;;4.43;;
75785;SDS011;64402;44.708;37.644;2024-01-27T07:44:10;10.02;;;3.65;;
75785;SDS011;64402;44.708;37.644;2024-01-27T07:46:38;6.00;;;2.90;;
75785;SDS011;64402;44.708;37.644;2024-01-27T07:49:06;6.70;;;2.90;;
75785;SDS011;64402;44.708;37.644;2024-01-27T07:51:33;6.38;;;2.75;;
75785;SDS011;64402;44.708;37.644;2024-01-27T07:54:00;6.45;;;2.85;;
75785;SDS011;64402;44.708;37.644;2024-01-27T07:56:27;6.82;;;3.67;;
75785;SDS011;64402;44.708;37.644;2024-01-27T07:58:53;9.13;;;3.70;;
75785;SDS011;64402;44.708;37.644;2024-01-27T08:01:19;8.93;;;4.05;;
75785;SDS011;64402;44.708;37.644;2024-01-27T08:03:46;9.27;;;4.88;;
75785;SDS011;64402;44.708;37.644;2024-01-27T08:06:16;7.32;;;3.85;;
75785;SDS011;64402;44.708;37.644;2024-01-27T08:08:46;9.50;;;4.90;;
75785;SDS011;64402;44.708;37.644;2024-01-27T08:11:14;6.68;;;2.65;;
75785;SDS011;64402;44.708;37.644;2024-01-27T08:13:41;8.45;;;4.32;;
75785;SDS011;64402;44.708;37.644;2024-01-27T08:16:08;10.48;;;5.20;;
75785;SDS011;64402;44.708;37.644;2024-01-27T08:18:41;10.20;;;5.40;;
75785;SDS011;64402;44.708;37.644;2024-01-27T08:21:10;9.63;;;4.68;;
75785;SDS011;64402;44.708;37.644;2024-01-27T08:23:37;9.18;;;4.60;;
75785;SDS011;64402;44.708;37.644;2024-01-27T08:26:03;6.82;;;3.40;;
75785;SDS011;64402;44.708;37.644;2024-01-27T08:28:30;6.03;;;2.50;;
75785;SDS011;64402;44.708;37.644;2024-01-27T08:30:56;6.30;;;2.78;;
75785;SDS011;64402;44.708;37.644;2024-01-27T08:33:22;5.47;;;1.92;;
75785;SDS011;64402;44.708;37.644;2024-01-27T08:35:49;5.63;;;2.38;;
75785;SDS011;64402;44.708;37.644;2024-01-27T08:38:15;8.30;;;2.50;;
75785;SDS011;64402;44.708;37.644;2024-01-27T08:40:41;5.82;;;2.67;;
75785;SDS011;64402;44.708;37.644;2024-01-27T08:43:07;6.55;;;2.53;;
75785;SDS011;64402;44.708;37.644;2024-01-27T08:45:37;6.32;;;2.40;;
75785;SDS011;64402;44.708;37.644;2024-01-27T08:48:06;6.22;;;2.55;;
75785;SDS011;64402;44.708;37.644;2024-01-27T08:50:33;5.80;;;2.28;;
75785;SDS011;64402;44.708;37.644;2024-01-27T08:52:59;5.10;;;2.25;;
75785;SDS011;64402;44.708;37.644;2024-01-27T08:55:26;12.82;;;5.63;;
75785;SDS011;64402;44.708;37.644;2024-01-27T08:57:52;7.30;;;3.03;;
75785;SDS011;64402;44.708;37.644;2024-01-27T09:00:18;6.25;;;2.35;;
75785;SDS011;64402;44.708;37.644;2024-01-27T09:02:45;7.65;;;3.10;;
75785;SDS011;64402;44.708;37.644;2024-01-27T09:05:12;7.90;;;3.75;;
75785;SDS011;64402;44.708;37.644;2024-01-27T09:07:38;7.65;;;3.20;;
75785;SDS011;64402;44.708;37.644;2024-01-27T09:10:04;7.63;;;3.20;;
75785;SDS011;64402;44.708;37.644;2024-01-27T09:12:32;7.95;;;3.63;;
75785;SDS011;64402;44.708;37.644;2024-01-27T09:14:58;7.13;;;3.00;;
75785;SDS011;64402;44.708;37.644;2024-01-27T09:17:24;6.53;;;2.50;;
75785;SDS011;64402;44.708;37.644;2024-01-27T09:19:51;5.82;;;2.20;;
75785;SDS011;64402;44.708;37.644;2024-01-27T09:22:17;6.90;;;2.92;;
75785;SDS011;64402;44.708;37.644;2024-01-27T09:24:43;8.82;;;3.20;;
75785;SDS011;64402;44.708;37.644;2024-01-27T09:27:10;6.40;;;2.70;;
75785;SDS011;64402;44.708;37.644;2024-01-27T09:29:36;5.22;;;2.40;;
75785;SDS011;64402;44.708;37.644;2024-01-27T09:32:02;9.38;;;3.03;;
75785;SDS011;64402;44.708;37.644;2024-01-27T09:34:29;7.47;;;3.15;;
75785;SDS011;64402;44.708;37.644;2024-01-27T09:36:55;11.30;;;4.60;;
75785;SDS011;64402;44.708;37.644;2024-01-27T09:39:21;8.98;;;4.18;;
75785;SDS011;64402;44.708;37.644;2024-01-27T09:41:48;11.75;;;5.30;;
75785;SDS011;64402;44.708;37.644;2024-01-27T09:46:43;11.13;;;5.22;;
75785;SDS011;64402;44.708;37.644;2024-01-27T09:49:13;12.25;;;7.00;;
75785;SDS011;64402;44.708;37.644;2024-01-27T09:51:42;15.75;;;8.27;;
75785;SDS011;64402;44.708;37.644;2024-01-27T09:54:09;16.58;;;8.20;;
75785;SDS011;64402;44.708;37.644;2024-01-27T09:56:35;16.42;;;7.63;;
75785;SDS011;64402;44.708;37.644;2024-01-27T09:59:01;13.85;;;7.30;;
75785;SDS011;64402;44.708;37.644;2024-01-27T10:01:28;9.63;;;4.65;;
75785;SDS011;64402;44.708;37.644;2024-01-27T10:03:55;13.52;;;6.10;;
75785;SDS011;64402;44.708;37.644;2024-01-27T10:06:21;14.43;;;7.47;;
75785;SDS011;64402;44.708;37.644;2024-01-27T10:08:54;11.32;;;5.47;;
75785;SDS011;64402;44.708;37.644;2024-01-27T10:11:21;15.77;;;7.35;;
75785;SDS011;64402;44.708;37.644;2024-01-27T10:13:55;15.48;;;7.85;;
75785;SDS011;64402;44.708;37.644;2024-01-27T10:16:21;19.50;;;10.25;;
75785;SDS011;64402;44.708;37.644;2024-01-27T10:18:58;13.05;;;6.57;;
75785;SDS011;64402;44.708;37.644;2024-01-27T10:21:25;10.57;;;4.97;;
75785;SDS011;64402;44.708;37.644;2024-01-27T10:23:52;16.45;;;8.45;;
75785;SDS011;64402;44.708;37.644;2024-01-27T10:26:19;9.57;;;4.50;;
75785;SDS011;64402;44.708;37.644;2024-01-27T10:28:54;6.70;;;2.88;;
75785;SDS011;64402;44.708;37.644;2024-01-27T10:31:25;9.88;;;4.05;;
75785;SDS011;64402;44.708;37.644;2024-01-27T10:33:53;11.50;;;6.30;;
75785;SDS011;64402;44.708;37.644;2024-01-27T10:36:23;21.38;;;11.40;;
75785;SDS011;64402;44.708;37.644;2024-01-27T10:38:51;22.73;;;12.55;;
75785;SDS011;64402;44.708;37.644;2024-01-27T10:41:24;28.70;;;14.95;;
75785;SDS011;64402;44.708;37.644;2024-01-27T10:43:52;36.28;;;17.80;;
75785;SDS011;64402;44.708;37.644;2024-01-27T10:46:19;30.30;;;16.35;;
75785;SDS011;64402;44.708;37.644;2024-01-27T10:48:49;32.60;;;16.52;;
75785;SDS011;64402;44.708;37.644;2024-01-27T10:51:22;31.60;;;17.63;;
75785;SDS011;64402;44.708;37.644;2024-01-27T10:53:59;31.52;;;16.08;;
75785;SDS011;64402;44.708;37.644;2024-01-27T10:56:31;23.67;;;13.63;;
75785;SDS011;64402;44.708;37.644;2024-01-27T10:59:01;19.25;;;9.55;;
75785;SDS011;64402;44.708;37.644;2024-01-27T11:01:30;8.95;;;4.95;;
75785;SDS011;64402;44.708;37.644;2024-01-27T11:03:57;10.68;;;5.18;;
75785;SDS011;64402;44.708;37.644;2024-01-27T11:06:25;9.88;;;4.88;;
75785;SDS011;64402;44.708;37.644;2024-01-27T11:08:54;9.73;;;5.30;;
75785;SDS011;64402;44.708;37.644;2024-01-27T11:11:20;11.82;;;5.75;;
75785;SDS011;64402;44.708;37.644;2024-01-27T11:13:47;9.23;;;4.13;;
75785;SDS011;64402;44.708;37.644;2024-01-27T11:16:15;9.20;;;3.67;;
75785;SDS011;64402;44.708;37.644;2024-01-27T11:18:43;6.43;;;2.80;;
75785;SDS011;64402;44.708;37.644;2024-01-27T11:21:19;6.10;;;2.95;;
75785;SDS011;64402;44.708;37.644;2024-01-27T11:23:46;9.65;;;3.63;;
75785;SDS011;64402;44.708;37.644;2024-01-27T11:26:17;8.55;;;3.60;;
75785;SDS011;64402;44.708;37.644;2024-01-27T11:28:45;9.25;;;4.88;;
75785;SDS011;64402;44.708;37.644;2024-01-27T11:31:12;7.72;;;3.83;;
75785;SDS011;64402;44.708;37.644;2024-01-27T11:33:42;10.35;;;4.10;;
75785;SDS011;64402;44.708;37.644;2024-01-27T11:36:14;9.50;;;4.93;;
75785;SDS011;64402;44.708;37.644;2024-01-27T11:38:45;6.93;;;3.08;;
75785;SDS011;64402;44.708;37.644;2024-01-27T11:41:11;6.75;;;3.00;;
75785;SDS011;64402;44.708;37.644;2024-01-27T11:43:38;9.68;;;3.92;;
75785;SDS011;64402;44.708;37.644;2024-01-27T11:46:05;9.25;;;4.72;;
75785;SDS011;64402;44.708;37.644;2024-01-27T11:48:32;8.25;;;3.00;;
75785;SDS011;64402;44.708;37.644;2024-01-27T11:51:06;6.75;;;2.45;;
75785;SDS011;64402;44.708;37.644;2024-01-27T11:53:36;6.38;;;2.70;;
75785;SDS011;64402;44.708;37.644;2024-01-27T11:56:03;8.43;;;3.17;;
75785;SDS011;64402;44.708;37.644;2024-01-27T11:58:33;6.35;;;2.80;;
75785;SDS011;64402;44.708;37.644;2024-01-27T12:00:59;6.15;;;3.00;;
75785;SDS011;64402;44.708;37.644;2024-01-27T12:03:26;7.00;;;3.13;;
75785;SDS011;64402;44.708;37.644;2024-01-27T12:05:53;7.25;;;2.42;;
75785;SDS011;64402;44.708;37.644;2024-01-27T12:08:19;8.38;;;3.20;;
75785;SDS011;64402;44.708;37.644;2024-01-27T12:10:46;7.15;;;3.08;;
75785;SDS011;64402;44.708;37.644;2024-01-27T12:13:12;7.10;;;2.65;;
75785;SDS011;64402;44.708;37.644;2024-01-27T12:15:38;5.10;;;2.38;;
75785;SDS011;64402;44.708;37.644;2024-01-27T12:18:04;6.32;;;1.85;;
75785;SDS011;64402;44.708;37.644;2024-01-27T12:20:31;5.03;;;1.90;;
75785;SDS011;64402;44.708;37.644;2024-01-27T12:23:04;5.93;;;1.92;;
75785;SDS011;64402;44.708;37.644;2024-01-27T12:25:33;5.70;;;1.90;;
75785;SDS011;64402;44.708;37.644;2024-01-27T12:28:03;9.57;;;2.10;;
75785;SDS011;64402;44.708;37.644;2024-01-27T12:30:33;5.53;;;2.00;;
75785;SDS011;64402;44.708;37.644;2024-01-27T12:33:00;5.55;;;2.20;;
75785;SDS011;64402;44.708;37.644;2024-01-27T12:35:27;5.38;;;1.80;;
75785;SDS011;64402;44.708;37.644;2024-01-27T12:37:55;6.13;;;2.40;;
75785;SDS011;64402;44.708;37.644;2024-01-27T12:40:21;4.65;;;1.90;;
75785;SDS011;64402;44.708;37.644;2024-01-27T12:42:51;3.97;;;1.50;;
75785;SDS011;64402;44.708;37.644;2024-01-27T12:45:18;7.40;;;2.20;;
75785;SDS011;64402;44.708;37.644;2024-01-27T12:47:44;7.72;;;2.08;;
75785;SDS011;64402;44.708;37.644;2024-01-27T12:50:11;5.50;;;2.20;;
75785;SDS011;64402;44.708;37.644;2024-01-27T12:52:37;4.97;;;1.67;;
75785;SDS011;64402;44.708;37.644;2024-01-27T12:55:08;4.65;;;1.88;;
75785;SDS011;64402;44.708;37.644;2024-01-27T12:57:34;4.20;;;1.60;;
75785;SDS011;64402;44.708;37.644;2024-01-27T13:00:01;6.47;;;2.20;;
75785;SDS011;64402;44.708;37.644;2024-01-27T13:02:30;6.78;;;2.13;;
75785;SDS011;64402;44.708;37.644;2024-01-27T13:04:56;3.92;;;1.90;;
75785;SDS011;64402;44.708;37.644;2024-01-27T13:07:23;4.60;;;2.00;;
75785;SDS011;64402;44.708;37.644;2024-01-27T13:09:49;4.65;;;1.70;;
75785;SDS011;64402;44.708;37.644;2024-01-27T13:12:16;5.03;;;1.58;;
75785;SDS011;64402;44.708;37.644;2024-01-27T13:14:42;3.80;;;1.67;;
75785;SDS011;64402;44.708;37.644;2024-01-27T13:17:09;4.55;;;1.70;;
75785;SDS011;64402;44.708;37.644;2024-01-27T13:19:35;6.75;;;1.77;;
75785;SDS011;64402;44.708;37.644;2024-01-27T13:22:01;5.57;;;2.30;;
75785;SDS011;64402;44.708;37.644;2024-01-27T13:24:29;7.85;;;3.50;;
75785;SDS011;64402;44.708;37.644;2024-01-27T13:26:55;10.18;;;4.53;;
75785;SDS011;64402;44.708;37.644;2024-01-27T13:29:21;5.63;;;2.63;;
75785;SDS011;64402;44.708;37.644;2024-01-27T13:31:49;5.93;;;2.35;;
75785;SDS011;64402;44.708;37.644;2024-01-27T13:34:15;8.65;;;2.60;;
75785;SDS011;64402;44.708;37.644;2024-01-27T13:36:42;9.43;;;3.50;;
75785;SDS011;64402;44.708;37.644;2024-01-27T13:39:08;6.32;;;2.65;;
75785;SDS011;64402;44.708;37.644;2024-01-27T13:41:34;7.05;;;2.95;;
75785;SDS011;64402;44.708;37.644;2024-01-27T13:44:01;8.50;;;2.55;;
75785;SDS011;64402;44.708;37.644;2024-01-27T13:46:27;9.20;;;3.25;;
75785;SDS011;64402;44.708;37.644;2024-01-27T13:48:53;11.70;;;4.32;;
75785;SDS011;64402;44.708;37.644;2024-01-27T13:51:20;12.75;;;4.97;;
75785;SDS011;64402;44.708;37.644;2024-01-27T13:53:46;9.15;;;3.47;;
75785;SDS011;64402;44.708;37.644;2024-01-27T13:56:13;14.40;;;3.47;;
75785;SDS011;64402;44.708;37.644;2024-01-27T13:58:39;8.18;;;3.72;;
75785;SDS011;64402;44.708;37.644;2024-01-27T14:01:06;9.35;;;4.15;;
75785;SDS011;64402;44.708;37.644;2024-01-27T14:03:33;7.35;;;3.00;;
75785;SDS011;64402;44.708;37.644;2024-01-27T14:06:00;15.85;;;6.22;;
75785;SDS011;64402;44.708;37.644;2024-01-27T14:08:26;13.98;;;4.97;;
75785;SDS011;64402;44.708;37.644;2024-01-27T14:10:52;13.77;;;5.20;;
75785;SDS011;64402;44.708;37.644;2024-01-27T14:13:19;15.18;;;4.93;;
75785;SDS011;64402;44.708;37.644;2024-01-27T14:15:45;22.27;;;7.82;;
75785;SDS011;64402;44.708;37.644;2024-01-27T14:18:11;15.57;;;5.75;;
75785;SDS011;64402;44.708;37.644;2024-01-27T14:23:12;19.52;;;6.85;;
75785;SDS011;64402;44.708;37.644;2024-01-27T14:25:38;24.73;;;8.80;;
75785;SDS011;64402;44.708;37.644;2024-01-27T14:28:04;19.63;;;7.15;;
75785;SDS011;64402;44.708;37.644;2024-01-27T14:30:33;6.72;;;3.00;;
75785;SDS011;64402;44.708;37.644;2024-01-27T14:32:59;7.28;;;3.17;;